Time;durP1;ratioP1;P1;durP2;ratioP2;P2;SDS_P1;SDS_P2;PMS_P1;PMS_P2;Temp;Humidity;BMP_temperature;BMP_pressure;BME280_temperature;BME280_humidity;BME280_pressure;Samples;Min_cycle;Max_cycle;Signal;HPM_P1;HPM_P2
2023/09/12 00:01:47;;;;;;;20.13;11.73;;;24.50;60.10;;;;;;5093194;28;20149;-61
2023/09/12 00:04:13;;;;;;;16.88;10.95;;;24.50;59.80;;;;;;5093511;28;20020;-61
2023/09/12 00:06:39;;;;;;;17.92;10.80;;;24.50;59.30;;;;;;5093091;28;20426;-61
2023/09/12 00:09:08;;;;;;;17.67;11.57;;;24.50;59.10;;;;;;5093177;28;20032;-61
2023/09/12 00:11:34;;;;;;;17.92;11.10;;;24.40;59.30;;;;;;5093199;28;20533;-58
2023/09/12 00:14:00;;;;;;;17.65;10.50;;;24.50;58.80;;;;;;5093268;28;20052;-61
2023/09/12 00:16:25;;;;;;;16.92;10.55;;;24.40;58.70;;;;;;5093065;28;20107;-61
2023/09/12 00:18:51;;;;;;;15.20;10.45;;;24.40;58.40;;;;;;5093119;28;20024;-60
2023/09/12 00:21:17;;;;;;;19.70;10.13;;;24.50;59.00;;;;;;5092737;28;20020;-61
2023/09/12 00:23:43;;;;;;;19.83;9.90;;;24.40;59.00;;;;;;5093055;28;20024;-61
2023/09/12 00:26:08;;;;;;;18.20;9.77;;;24.40;58.40;;;;;;5092961;28;20603;-59
2023/09/12 00:28:34;;;;;;;21.52;10.20;;;24.40;58.10;;;;;;5093040;28;20592;-59
2023/09/12 00:31:00;;;;;;;17.48;9.73;;;24.40;58.20;;;;;;5092556;28;20024;-59
2023/09/12 00:33:27;;;;;;;17.83;9.68;;;24.40;58.00;;;;;;5092762;28;20514;-60
2023/09/12 00:35:52;;;;;;;17.27;9.93;;;24.40;58.10;;;;;;5074655;28;20032;-61
2023/09/12 00:38:18;;;;;;;15.65;9.40;;;24.40;57.90;;;;;;5092682;28;20031;-60
2023/09/12 00:40:44;;;;;;;20.92;9.90;;;24.40;57.80;;;;;;5092372;28;20501;-61
2023/09/12 00:43:10;;;;;;;20.52;9.32;;;24.40;57.90;;;;;;5092873;28;20476;-58
2023/09/12 00:45:37;;;;;;;17.85;9.10;;;24.30;57.70;;;;;;5092486;28;20510;-57
2023/09/12 00:48:04;;;;;;;22.30;10.45;;;24.40;57.80;;;;;;5074493;28;20024;-60
2023/09/12 00:50:31;;;;;;;17.17;9.98;;;24.30;58.00;;;;;;5074111;28;20145;-59
2023/09/12 00:52:58;;;;;;;14.98;9.35;;;24.30;57.90;;;;;;5092346;28;20051;-61
2023/09/12 00:55:24;;;;;;;18.38;8.93;;;24.30;57.70;;;;;;5092368;28;20032;-59
2023/09/12 00:57:51;;;;;;;16.75;9.10;;;24.30;58.40;;;;;;5092381;28;20031;-57
2023/09/12 01:00:17;;;;;;;14.02;8.52;;;24.30;57.90;;;;;;5073963;28;20403;-61
2023/09/12 01:02:45;;;;;;;20.00;9.18;;;24.30;57.90;;;;;;5092424;28;20016;-59
2023/09/12 01:05:13;;;;;;;15.60;8.90;;;24.30;57.90;;;;;;5092213;28;20024;-58
2023/09/12 01:07:39;;;;;;;16.52;9.38;;;24.30;58.20;;;;;;5092210;28;20016;-60
2023/09/12 01:10:06;;;;;;;17.92;9.68;;;24.30;58.00;;;;;;5073872;28;20395;-61
2023/09/12 01:12:32;;;;;;;13.35;9.38;;;24.30;58.00;;;;;;5092184;28;20394;-60
2023/09/12 01:14:58;;;;;;;17.13;10.10;;;24.30;58.10;;;;;;5073986;28;20032;-61
2023/09/12 01:17:24;;;;;;;15.20;9.27;;;24.30;58.10;;;;;;5091991;28;20020;-60
2023/09/12 01:19:51;;;;;;;22.95;9.90;;;24.20;58.00;;;;;;5091706;28;20534;-57
2023/09/12 01:22:51;;;;;;;17.83;9.55;;;24.30;58.10;;;;;;5073968;28;20070;-61
2023/09/12 01:25:20;;;;;;;16.30;9.30;;;24.30;58.20;;;;;;5092034;28;20020;-60
2023/09/12 01:27:51;;;;;;;20.43;9.57;;;24.20;58.60;;;;;;5073421;28;20067;-58
2023/09/12 01:30:20;;;;;;;18.33;9.73;;;24.20;58.20;;;;;;5073562;28;20016;-59
2023/09/12 01:32:47;;;;;;;14.90;8.80;;;24.20;58.30;;;;;;5073987;28;20028;-61
2023/09/12 01:35:13;;;;;;;16.05;9.27;;;24.20;58.30;;;;;;5073699;28;20053;-60
2023/09/12 01:37:39;;;;;;;15.18;9.55;;;24.20;58.40;;;;;;5091716;28;20032;-60
2023/09/12 01:40:06;;;;;;;13.80;9.55;;;24.20;58.60;;;;;;5091334;28;20036;-59
2023/09/12 01:42:42;;;;;;;18.13;9.18;;;24.20;58.60;;;;;;5091748;28;20030;-60
2023/09/12 01:45:17;;;;;;;17.45;9.40;;;24.20;58.70;;;;;;5091589;28;20080;-60
2023/09/12 01:47:46;;;;;;;13.85;9.10;;;24.20;58.70;;;;;;5073706;28;20024;-59
2023/09/12 01:50:13;;;;;;;17.70;9.45;;;24.20;58.70;;;;;;5091561;28;20028;-61
2023/09/12 01:52:40;;;;;;;19.20;9.27;;;24.20;58.60;;;;;;5091635;28;20081;-61
2023/09/12 01:55:09;;;;;;;15.88;9.05;;;24.20;58.50;;;;;;5091582;28;20020;-60
2023/09/12 01:57:38;;;;;;;17.27;9.43;;;24.20;58.70;;;;;;5073759;28;20031;-61
2023/09/12 02:00:05;;;;;;;16.90;10.18;;;24.20;58.60;;;;;;5073156;28;20035;-59
2023/09/12 02:02:31;;;;;;;15.70;9.32;;;24.20;58.50;;;;;;5091507;28;20028;-59
2023/09/12 02:05:18;;;;;;;17.58;9.73;;;24.20;58.60;;;;;;5073477;28;20115;-55
2023/09/12 02:07:45;;;;;;;18.13;8.88;;;24.20;58.70;;;;;;5005385;22;20041;-62
2023/09/12 02:10:11;;;;;;;18.13;8.77;;;24.20;58.60;;;;;;4988291;28;20030;-62
2023/09/12 02:12:38;;;;;;;21.05;9.35;;;24.20;58.70;;;;;;4989291;28;20027;-62
2023/09/12 02:15:07;;;;;;;18.08;9.68;;;24.20;59.30;;;;;;4984702;28;20053;-61
2023/09/12 02:17:33;;;;;;;18.70;9.93;;;24.10;58.70;;;;;;5004283;28;20052;-62
2023/09/12 02:19:59;;;;;;;14.95;9.60;;;24.10;58.70;;;;;;5008332;28;20022;-61
2023/09/12 02:22:24;;;;;;;15.63;9.65;;;24.10;58.80;;;;;;5008467;28;20098;-62
2023/09/12 02:24:51;;;;;;;15.02;8.95;;;24.10;58.80;;;;;;5007335;28;20030;-62
2023/09/12 02:27:17;;;;;;;16.13;9.75;;;24.10;58.80;;;;;;5008404;28;20022;-61
2023/09/12 02:29:43;;;;;;;16.10;9.57;;;24.10;58.90;;;;;;5007190;28;20030;-61
2023/09/12 02:32:09;;;;;;;19.88;9.75;;;24.10;59.00;;;;;;5008383;28;20049;-62
2023/09/12 02:34:35;;;;;;;14.30;9.25;;;24.10;59.00;;;;;;5008562;28;20026;-61
2023/09/12 02:37:01;;;;;;;20.63;9.85;;;24.10;59.10;;;;;;5008346;28;20033;-62
2023/09/12 02:39:27;;;;;;;17.58;10.13;;;24.10;59.10;;;;;;5008431;28;20029;-61
2023/09/12 02:41:53;;;;;;;16.95;9.07;;;24.10;59.00;;;;;;5010174;28;20033;-62
2023/09/12 02:44:19;;;;;;;20.88;9.50;;;24.10;58.90;;;;;;5010428;28;20048;-62
2023/09/12 02:46:45;;;;;;;15.52;9.77;;;24.10;58.80;;;;;;5011546;28;20022;-61
2023/09/12 02:49:11;;;;;;;14.85;8.77;;;24.10;58.80;;;;;;5010389;28;20037;-61
2023/09/12 02:51:41;;;;;;;14.88;8.90;;;24.10;58.90;;;;;;5010028;28;20034;-60
2023/09/12 02:54:07;;;;;;;17.50;9.73;;;24.00;58.90;;;;;;5010479;28;20492;-62
2023/09/12 02:56:33;;;;;;;17.15;8.85;;;24.10;59.00;;;;;;5010409;28;20054;-62
2023/09/12 02:58:59;;;;;;;13.38;9.30;;;24.10;58.80;;;;;;5010363;28;20061;-62
2023/09/12 03:01:27;;;;;;;18.88;9.20;;;24.00;58.70;;;;;;5011204;28;20072;-62
2023/09/12 03:03:54;;;;;;;15.48;9.88;;;24.00;58.60;;;;;;5010182;28;20037;-61
2023/09/12 03:06:20;;;;;;;22.80;10.07;;;24.00;58.60;;;;;;5011254;28;20075;-61
2023/09/12 03:08:47;;;;;;;17.88;9.32;;;24.00;58.70;;;;;;5010342;28;20030;-62
2023/09/12 03:11:13;;;;;;;15.82;9.70;;;24.00;58.80;;;;;;5011059;28;20029;-62
2023/09/12 03:13:42;;;;;;;19.17;9.52;;;24.00;58.70;;;;;;5010168;28;20448;-61
2023/09/12 03:16:12;;;;;;;18.17;9.33;;;24.00;58.70;;;;;;5011238;28;20037;-61
2023/09/12 03:18:38;;;;;;;;;;;23.90;58.70;;;;;;5010405;28;20029;-62
2023/09/12 03:21:04;;;;;;;13.75;8.98;;;24.00;58.70;;;;;;5009555;28;20403;-61
2023/09/12 03:23:30;;;;;;;22.48;10.52;;;24.00;59.20;;;;;;5011144;28;20527;-61
2023/09/12 03:26:03;;;;;;;17.10;10.60;;;23.90;58.70;;;;;;5011010;28;20018;-62
2023/09/12 03:28:30;;;;;;;16.65;9.60;;;23.90;58.70;;;;;;5009921;28;20026;-62
2023/09/12 03:31:16;;;;;;;13.30;9.90;;;23.90;58.70;;;;;;5010727;28;20066;-62
2023/09/12 03:33:47;;;;;;;17.17;9.63;;;23.90;58.60;;;;;;5113266;27;20076;-62
2023/09/12 03:36:13;;;;;;;16.58;9.57;;;23.90;58.60;;;;;;5009763;28;20034;-62
2023/09/12 03:38:39;;;;;;;20.17;10.77;;;23.90;58.60;;;;;;5009745;28;20037;-62
2023/09/12 03:41:05;;;;;;;15.13;9.10;;;23.90;58.60;;;;;;5009376;28;20052;-62
2023/09/12 03:43:33;;;;;;;15.75;9.43;;;23.90;58.60;;;;;;5009694;28;20382;-62
2023/09/12 03:45:59;;;;;;;14.20;9.63;;;23.90;58.60;;;;;;5009577;28;20032;-61
2023/09/12 03:48:25;;;;;;;16.10;8.98;;;23.90;58.70;;;;;;5009460;28;20049;-62
2023/09/12 03:50:51;;;;;;;15.75;9.07;;;23.80;58.60;;;;;;5008776;28;20038;-61
2023/09/12 03:53:17;;;;;;;17.85;9.35;;;23.90;58.70;;;;;;5009532;28;20034;-60
2023/09/12 03:55:43;;;;;;;15.27;9.05;;;23.90;58.60;;;;;;5009437;28;20026;-62
2023/09/12 03:58:09;;;;;;;14.93;9.43;;;23.80;58.70;;;;;;5009419;28;20034;-61
2023/09/12 04:00:35;;;;;;;15.48;9.05;;;23.90;58.70;;;;;;5009025;28;20409;-62
2023/09/12 04:03:01;;;;;;;15.18;9.50;;;23.80;58.80;;;;;;4993300;28;20038;-61
2023/09/12 04:05:27;;;;;;;14.85;8.70;;;23.80;58.70;;;;;;5010513;28;20030;-60
2023/09/12 04:07:53;;;;;;;14.23;9.43;;;23.80;58.60;;;;;;5009024;28;20030;-62
2023/09/12 04:10:20;;;;;;;16.90;9.55;;;23.80;58.50;;;;;;5008929;28;20428;-62
2023/09/12 04:12:46;;;;;;;15.27;9.13;;;23.80;58.30;;;;;;5010348;28;20030;-62
2023/09/12 04:15:12;;;;;;;15.07;9.02;;;23.80;58.20;;;;;;5009218;28;20030;-61
2023/09/12 04:17:38;;;;;;;16.23;9.27;;;23.80;58.10;;;;;;5008988;28;20131;-63
2023/09/12 04:20:05;;;;;;;16.67;9.68;;;23.80;58.10;;;;;;5008804;28;20041;-63
2023/09/12 04:22:31;;;;;;;12.57;9.00;;;23.80;58.10;;;;;;5009073;28;20030;-61
2023/09/12 04:24:57;;;;;;;15.25;8.40;;;23.80;58.20;;;;;;5010164;28;20101;-60
2023/09/12 04:27:23;;;;;;;17.73;8.63;;;23.80;58.10;;;;;;5008796;28;20392;-61
2023/09/12 04:29:49;;;;;;;16.92;9.15;;;23.80;58.20;;;;;;5008638;28;20033;-61
2023/09/12 04:32:16;;;;;;;14.23;8.77;;;23.80;58.20;;;;;;5009030;28;20025;-61
2023/09/12 04:34:43;;;;;;;14.52;9.43;;;23.80;58.10;;;;;;5008813;28;20087;-61
2023/09/12 04:37:09;;;;;;;15.43;8.90;;;23.80;58.10;;;;;;5009931;28;20378;-62
2023/09/12 04:39:35;;;;;;;15.27;8.73;;;23.80;58.10;;;;;;5008763;28;20025;-62
2023/09/12 04:42:04;;;;;;;22.27;9.90;;;23.80;58.20;;;;;;5008484;28;20033;-62
2023/09/12 04:44:39;;;;;;;17.15;9.60;;;23.80;58.10;;;;;;5009857;28;20112;-61
2023/09/12 04:47:04;;;;;;;16.13;10.05;;;23.80;58.00;;;;;;5009731;28;20068;-63
2023/09/12 04:49:30;;;;;;;14.65;9.23;;;23.80;58.10;;;;;;5008777;28;20029;-63
2023/09/12 04:51:56;;;;;;;16.92;9.48;;;23.80;58.30;;;;;;5009655;28;20038;-63
2023/09/12 04:54:23;;;;;;;19.17;9.50;;;23.80;58.30;;;;;;5009753;28;20110;-60
2023/09/12 04:56:49;;;;;;;14.77;9.40;;;23.70;58.20;;;;;;5008437;28;20103;-60
2023/09/12 04:59:15;;;;;;;18.77;10.15;;;23.80;58.20;;;;;;5009301;28;20488;-60
2023/09/12 05:01:40;;;;;;;14.18;9.25;;;23.80;58.20;;;;;;5008393;28;20462;-60
2023/09/12 05:04:06;;;;;;;17.23;10.15;;;23.80;58.20;;;;;;5009672;28;20030;-59
2023/09/12 05:06:32;;;;;;;15.90;9.90;;;23.80;58.20;;;;;;5008205;28;20057;-59
2023/09/12 05:08:58;;;;;;;18.20;9.90;;;23.80;58.20;;;;;;5008369;28;20045;-60
2023/09/12 05:11:24;;;;;;;16.45;9.65;;;23.70;58.00;;;;;;5009136;28;20068;-60
2023/09/12 05:13:50;;;;;;;17.77;9.73;;;23.80;58.10;;;;;;5008294;28;20378;-61
2023/09/12 05:16:16;;;;;;;15.98;9.30;;;23.80;58.20;;;;;;5008151;28;20045;-61
2023/09/12 05:18:42;;;;;;;15.57;10.18;;;23.70;58.20;;;;;;5008032;28;20030;-60
2023/09/12 05:21:08;;;;;;;15.50;9.52;;;23.80;58.30;;;;;;5009138;28;20553;-61
2023/09/12 05:23:34;;;;;;;15.15;9.27;;;23.70;58.20;;;;;;5008386;28;20094;-60
2023/09/12 05:26:00;;;;;;;19.20;9.68;;;23.80;58.20;;;;;;5007947;28;20493;-60
2023/09/12 05:28:25;;;;;;;16.15;9.13;;;23.80;57.90;;;;;;5009294;28;20493;-61
2023/09/12 05:30:52;;;;;;;18.63;10.05;;;23.80;58.00;;;;;;5007663;28;20633;-62
2023/09/12 05:33:19;;;;;;;21.85;10.13;;;23.70;57.90;;;;;;5007877;28;20139;-61
2023/09/12 05:35:45;;;;;;;16.15;9.20;;;23.70;58.00;;;;;;5007726;28;20446;-62
2023/09/12 05:38:11;;;;;;;18.08;10.15;;;23.70;58.00;;;;;;5009068;28;20139;-62
2023/09/12 05:40:37;;;;;;;16.70;9.93;;;23.70;57.90;;;;;;5007441;28;20049;-62
2023/09/12 05:43:03;;;;;;;17.25;9.43;;;23.70;58.10;;;;;;5009168;28;20512;-61
2023/09/12 05:45:30;;;;;;;18.10;8.73;;;23.70;58.20;;;;;;5008972;28;20022;-61
2023/09/12 05:47:56;;;;;;;15.25;9.25;;;23.80;58.30;;;;;;5007553;28;20083;-62
2023/09/12 05:50:23;;;;;;;19.35;9.70;;;23.70;58.40;;;;;;5007313;28;20555;-61
2023/09/12 05:52:49;;;;;;;14.88;9.52;;;23.80;58.50;;;;;;5007686;28;20037;-62
2023/09/12 05:55:16;;;;;;;17.75;9.38;;;23.70;58.40;;;;;;5007652;28;20058;-62
2023/09/12 05:57:42;;;;;;;19.60;10.80;;;23.80;58.30;;;;;;5007551;28;20513;-62
2023/09/12 06:00:11;;;;;;;17.15;9.90;;;23.70;58.20;;;;;;5007357;28;20072;-62
2023/09/12 06:02:42;;;;;;;22.88;10.77;;;23.70;58.20;;;;;;5007647;28;20102;-62
2023/09/12 06:05:08;;;;;;;19.27;10.82;;;23.70;58.10;;;;;;5007688;28;20030;-61
2023/09/12 06:07:34;;;;;;;18.63;10.25;;;23.80;58.10;;;;;;5008631;28;20605;-61
2023/09/12 06:10:01;;;;;;;15.95;9.70;;;23.70;58.10;;;;;;5008491;28;20173;-61
2023/09/12 06:12:26;;;;;;;20.63;10.02;;;23.80;58.40;;;;;;5008148;28;20037;-62
2023/09/12 06:14:55;;;;;;;21.95;10.18;;;23.70;58.40;;;;;;5011978;28;20041;-62
2023/09/12 06:17:21;;;;;;;19.42;10.20;;;23.70;58.40;;;;;;5012020;28;20378;-61
2023/09/12 06:19:49;;;;;;;19.55;10.18;;;23.80;58.40;;;;;;5011943;28;20026;-62
2023/09/12 06:22:17;;;;;;;17.27;9.95;;;23.80;58.50;;;;;;5012265;28;20041;-62
2023/09/12 06:24:43;;;;;;;20.80;10.60;;;23.80;58.60;;;;;;5012008;28;20026;-61
2023/09/12 06:27:10;;;;;;;26.20;11.25;;;23.70;58.60;;;;;;5012049;28;20542;-62
2023/09/12 06:29:35;;;;;;;19.75;10.85;;;23.80;58.70;;;;;;5011896;28;20131;-62
2023/09/12 06:32:02;;;;;;;20.40;10.48;;;23.80;58.80;;;;;;5011565;28;20101;-62
2023/09/12 06:34:27;;;;;;;18.10;10.07;;;23.80;58.80;;;;;;5010741;28;20109;-61
2023/09/12 06:36:53;;;;;;;24.13;10.57;;;23.80;58.50;;;;;;5011754;28;20518;-62
2023/09/12 06:39:19;;;;;;;19.48;10.68;;;23.90;58.70;;;;;;5010542;28;20393;-62
2023/09/12 06:41:45;;;;;;;17.52;10.07;;;23.80;58.90;;;;;;5011532;28;20026;-62
2023/09/12 06:44:11;;;;;;;19.63;9.95;;;23.90;58.80;;;;;;5011637;28;20037;-61
2023/09/12 06:46:37;;;;;;;27.85;9.35;;;23.90;58.60;;;;;;5011505;28;20018;-62
2023/09/12 06:49:03;;;;;;;16.63;9.10;;;23.90;58.70;;;;;;5011774;28;20374;-62
2023/09/12 06:51:29;;;;;;;20.58;10.15;;;23.90;58.50;;;;;;5011402;28;20037;-61
2023/09/12 06:53:55;;;;;;;21.77;10.30;;;23.90;58.50;;;;;;5011524;28;20122;-61
2023/09/12 06:56:21;;;;;;;24.10;9.68;;;23.90;58.40;;;;;;5011498;28;20030;-61
2023/09/12 06:58:48;;;;;;;27.27;9.43;;;23.90;58.30;;;;;;4982452;28;20457;-61
2023/09/12 07:01:13;;;;;;;17.20;8.93;;;24.00;58.50;;;;;;5039705;28;20028;-62
2023/09/12 07:03:39;;;;;;;27.00;9.38;;;24.00;58.30;;;;;;5091911;28;20035;-61
2023/09/12 07:06:05;;;;;;;28.17;9.52;;;24.00;58.40;;;;;;5072400;28;20025;-61
2023/09/12 07:08:32;;;;;;;23.98;9.52;;;24.10;58.60;;;;;;5092219;28;20361;-57
2023/09/12 07:11:05;;;;;;;29.63;9.85;;;24.10;58.60;;;;;;5073070;28;20024;-57
2023/09/12 07:13:34;;;;;;;35.40;9.68;;;24.10;58.60;;;;;;5092413;28;20396;-56
2023/09/12 07:16:03;;;;;;;26.88;8.93;;;24.20;58.80;;;;;;5075018;28;20024;-58
2023/09/12 07:18:29;;;;;;;19.17;9.23;;;24.20;58.80;;;;;;5092191;28;20047;-55
2023/09/12 07:21:02;;;;;;;26.30;10.57;;;24.20;59.20;;;;;;5076706;28;20409;-54
2023/09/12 07:23:29;;;;;;;23.65;9.45;;;24.30;58.70;;;;;;5042890;28;20506;-57
2023/09/12 07:25:59;;;;;;;18.83;9.75;;;24.30;58.70;;;;;;5076960;28;20090;-56
2023/09/12 07:28:28;;;;;;;19.38;9.13;;;24.30;58.90;;;;;;5091716;28;20059;-60
2023/09/12 07:30:54;;;;;;;22.13;9.30;;;24.40;58.90;;;;;;5079425;28;20107;-57
2023/09/12 07:33:21;;;;;;;18.83;8.45;;;24.40;59.10;;;;;;5063519;28;20468;-60
2023/09/12 07:35:48;;;;;;;21.25;8.98;;;24.50;59.30;;;;;;5050896;28;20055;-56
2023/09/12 07:38:17;;;;;;;16.88;8.73;;;24.50;59.40;;;;;;5024063;28;20030;-58
2023/09/12 07:40:43;;;;;;;18.17;8.13;;;24.50;59.40;;;;;;5040175;28;20035;-58
2023/09/12 07:43:09;;;;;;;20.30;10.00;;;24.60;59.60;;;;;;5005711;28;20322;-60
2023/09/12 07:45:37;;;;;;;20.42;8.60;;;24.60;59.70;;;;;;5081637;28;20095;-58
2023/09/12 07:48:07;;;;;;;20.35;8.38;;;24.60;59.90;;;;;;5049803;28;20032;-56
2023/09/12 07:50:34;;;;;;;19.10;7.60;;;24.70;60.40;;;;;;5066739;28;20503;-60
2023/09/12 07:53:00;;;;;;;18.88;8.52;;;24.70;60.00;;;;;;5071217;28;20057;-59
2023/09/12 07:55:26;;;;;;;15.50;7.72;;;24.80;60.00;;;;;;5041408;28;20047;-60
2023/09/12 07:57:51;;;;;;;19.05;8.18;;;24.70;60.00;;;;;;5017107;28;20062;-60
2023/09/12 08:00:17;;;;;;;18.65;8.20;;;24.80;60.00;;;;;;5023431;28;20034;-59
2023/09/12 08:02:43;;;;;;;24.88;8.13;;;24.80;60.10;;;;;;5010240;28;20038;-58
2023/09/12 08:05:09;;;;;;;18.67;8.25;;;24.80;60.00;;;;;;5077732;28;20024;-58
2023/09/12 08:07:36;;;;;;;17.55;7.75;;;24.80;60.10;;;;;;5091977;23;20399;-56
2023/09/12 08:10:02;;;;;;;20.67;8.20;;;24.80;60.30;;;;;;5085233;28;20024;-58
2023/09/12 08:12:28;;;;;;;17.55;7.32;;;24.90;59.40;;;;;;5088319;28;20077;-61
2023/09/12 08:14:55;;;;;;;21.77;7.80;;;24.80;59.80;;;;;;5088528;28;20027;-60
2023/09/12 08:17:22;;;;;;;21.98;8.13;;;24.80;59.00;;;;;;5083528;28;20032;-60
2023/09/12 08:19:48;;;;;;;21.83;7.75;;;24.90;60.10;;;;;;5081934;28;20032;-61
2023/09/12 08:22:14;;;;;;;26.13;7.97;;;24.90;60.10;;;;;;5079720;28;20388;-58
2023/09/12 08:24:40;;;;;;;26.88;8.43;;;25.00;59.30;;;;;;5074761;28;20404;-61
2023/09/12 08:27:06;;;;;;;19.55;7.45;;;24.90;59.80;;;;;;5083390;28;20050;-59
2023/09/12 08:29:33;;;;;;;23.23;7.20;;;24.90;59.50;;;;;;5074594;28;20099;-60
2023/09/12 08:32:00;;;;;;;20.35;7.72;;;25.00;60.20;;;;;;5070905;28;20026;-60
2023/09/12 08:34:27;;;;;;;26.13;7.80;;;24.90;59.30;;;;;;5082202;28;20124;-57
2023/09/12 08:36:52;;;;;;;22.05;7.78;;;24.90;59.20;;;;;;5088147;28;20816;-58
2023/09/12 08:39:25;;;;;;;27.08;7.65;;;24.90;60.10;;;;;;5074404;28;20104;-61
2023/09/12 08:41:51;;;;;;;24.40;7.00;;;25.00;58.20;;;;;;5068202;28;20496;-57
2023/09/12 08:44:18;;;;;;;20.33;6.90;;;25.00;59.10;;;;;;5056947;28;20060;-58
2023/09/12 08:46:45;;;;;;;21.52;7.30;;;25.00;59.20;;;;;;5088447;28;20028;-55
2023/09/12 08:49:11;;;;;;;31.30;6.93;;;25.00;59.60;;;;;;5083939;28;20473;-61
2023/09/12 08:51:39;;;;;;;22.13;7.10;;;25.00;59.10;;;;;;5078647;28;20028;-54
2023/09/12 08:54:05;;;;;;;17.17;7.38;;;25.00;58.50;;;;;;5086775;28;20085;-59
2023/09/12 08:56:34;;;;;;;19.85;7.55;;;25.00;58.90;;;;;;5083379;28;20553;-60
2023/09/12 08:59:01;;;;;;;20.27;6.65;;;25.00;58.40;;;;;;5083898;28;20059;-59
2023/09/12 09:01:31;;;;;;;20.90;7.70;;;25.10;59.40;;;;;;5071054;28;20857;-59
2023/09/12 09:03:57;;;;;;;22.27;7.43;;;25.10;59.10;;;;;;5072516;28;20020;-59
2023/09/12 09:06:25;;;;;;;20.60;7.18;;;25.10;58.80;;;;;;5081063;28;20036;-60
2023/09/12 09:08:51;;;;;;;25.05;7.70;;;25.10;59.80;;;;;;5080741;28;20020;-56
2023/09/12 09:11:17;;;;;;;26.45;8.32;;;25.20;59.10;;;;;;5072712;28;20518;-61
2023/09/12 09:13:43;;;;;;;18.73;7.45;;;25.30;60.40;;;;;;5076752;28;20055;-61
2023/09/12 09:16:20;;;;;;;24.90;8.10;;;25.20;59.70;;;;;;5072745;28;20059;-61
2023/09/12 09:19:00;;;;;;;24.05;7.50;;;25.20;60.70;;;;;;5075704;28;20094;-59
2023/09/12 09:21:31;;;;;;;25.15;7.82;;;25.20;59.60;;;;;;5087333;28;20031;-61
2023/09/12 09:24:05;;;;;;;28.85;8.38;;;25.20;60.10;;;;;;5079225;28;20017;-61
2023/09/12 09:26:51;;;;;;;19.67;6.88;;;25.20;60.30;;;;;;5078786;28;20057;-58
2023/09/12 09:29:19;;;;;;;19.75;6.95;;;25.30;60.70;;;;;;5085970;28;20047;-62
2023/09/12 09:31:47;;;;;;;23.58;7.13;;;25.30;60.40;;;;;;5087170;28;20028;-61
2023/09/12 09:34:15;;;;;;;27.63;8.05;;;25.30;60.30;;;;;;5078694;28;20578;-61
2023/09/12 09:36:47;;;;;;;24.20;7.38;;;25.20;60.50;;;;;;5066918;28;20024;-60
2023/09/12 09:39:14;;;;;;;25.77;8.55;;;25.10;60.90;;;;;;5052444;28;20113;-60
2023/09/12 09:41:40;;;;;;;24.45;8.50;;;25.20;61.50;;;;;;5048927;28;20075;-61
2023/09/12 09:44:08;;;;;;;31.00;8.75;;;25.20;61.80;;;;;;5070217;28;20077;-60
2023/09/12 09:46:36;;;;;;;26.23;8.55;;;25.20;62.00;;;;;;5071836;28;20035;-62
2023/09/12 09:49:02;;;;;;;22.52;8.20;;;25.20;61.90;;;;;;5067315;28;20082;-61
2023/09/12 09:51:31;;;;;;;18.40;8.70;;;25.10;62.20;;;;;;5066228;28;20081;-60
2023/09/12 09:53:58;;;;;;;27.83;9.25;;;25.10;62.10;;;;;;5069990;28;20024;-61
2023/09/12 09:56:25;;;;;;;30.50;8.80;;;25.20;62.50;;;;;;5081423;28;20134;-59
2023/09/12 09:58:55;;;;;;;25.85;8.93;;;25.20;62.60;;;;;;5082241;28;20065;-61
2023/09/12 10:01:27;;;;;;;23.05;9.07;;;25.20;62.90;;;;;;5075209;28;20447;-58
2023/09/12 10:03:57;;;;;;;33.70;10.15;;;25.10;62.90;;;;;;5081934;28;20543;-57
2023/09/12 10:06:23;;;;;;;24.30;9.10;;;25.20;63.40;;;;;;5076756;28;20029;-56
2023/09/12 10:08:53;;;;;;;19.92;8.73;;;25.20;63.20;;;;;;5071094;28;20490;-59
2023/09/12 10:11:24;;;;;;;26.23;9.25;;;25.10;62.90;;;;;;5086793;28;20081;-57
2023/09/12 10:13:53;;;;;;;22.73;9.05;;;25.10;62.90;;;;;;5071541;28;20025;-59
2023/09/12 10:16:54;;;;;;;;;;;25.10;63.10;;;;;;5079636;28;20072;-58
2023/09/12 10:19:24;;;;;;;28.23;10.07;;;25.20;63.10;;;;;;5008142;28;20377;-60
2023/09/12 10:22:02;;;;;;;23.58;9.50;;;25.20;63.20;;;;;;5003965;28;20506;-58
2023/09/12 10:24:30;;;;;;;22.83;9.90;;;25.20;63.40;;;;;;5003747;28;20030;-60
2023/09/12 10:26:58;;;;;;;20.10;9.57;;;25.20;64.00;;;;;;5004234;28;20489;-61
2023/09/12 10:29:24;;;;;;;27.67;10.50;;;25.20;63.20;;;;;;5005511;28;20507;-61
2023/09/12 10:31:49;;;;;;;28.65;9.90;;;25.20;63.10;;;;;;5003844;28;21064;-53
2023/09/12 10:34:16;;;;;;;19.77;9.45;;;25.20;63.10;;;;;;5004886;28;20046;-56
2023/09/12 10:36:43;;;;;;;22.25;9.65;;;25.30;63.10;;;;;;5003929;28;20468;-55
2023/09/12 10:39:11;;;;;;;37.08;9.95;;;25.30;63.70;;;;;;5008338;28;20029;-55
2023/09/12 10:41:38;;;;;;;26.98;9.23;;;25.30;63.20;;;;;;5004405;28;20111;-51
2023/09/12 10:44:11;;;;;;;29.02;9.15;;;25.30;62.90;;;;;;5004844;28;20033;-53
2023/09/12 10:46:40;;;;;;;32.08;8.98;;;25.30;62.60;;;;;;5003636;28;20068;-50
2023/09/12 10:49:08;;;;;;;;;;;25.30;62.50;;;;;;5006565;28;20026;-50
2023/09/12 10:51:45;;;;;;;27.40;9.00;;;25.30;63.10;;;;;;5003319;28;19949;-56
2023/09/12 10:54:22;;;;;;;28.73;9.02;;;25.20;63.00;;;;;;5068769;28;20682;-55
2023/09/12 10:57:05;;;;;;;26.02;9.77;;;25.20;63.00;;;;;;5070732;28;20078;-54
2023/09/12 10:59:37;;;;;;;24.30;9.32;;;25.20;63.00;;;;;;5075321;28;20039;-54
2023/09/12 11:02:37;;;;;;;21.45;8.75;;;25.20;63.10;;;;;;5088255;28;20431;-50
2023/09/12 11:05:04;;;;;;;26.65;8.27;;;25.20;63.00;;;;;;4985266;28;20066;-51
2023/09/12 11:07:36;;;;;;;21.27;8.48;;;25.10;63.20;;;;;;4986522;28;20037;-53
2023/09/12 11:10:18;;;;;;;19.95;8.60;;;25.10;63.10;;;;;;4988287;28;20042;-55
2023/09/12 11:12:46;;;;;;;23.83;9.82;;;25.10;63.00;;;;;;4984688;28;20030;-52
2023/09/12 11:15:13;;;;;;;19.27;8.90;;;25.20;63.20;;;;;;4990459;28;20506;-49
2023/09/12 11:17:40;;;;;;;20.75;8.55;;;25.10;63.10;;;;;;4987060;28;20037;-48
2023/09/12 11:20:13;;;;;;;22.27;8.20;;;25.10;63.00;;;;;;4987444;28;20517;-49
2023/09/12 11:22:48;;;;;;;19.58;8.80;;;25.10;63.00;;;;;;4987849;28;20582;-51
2023/09/12 11:25:25;;;;;;;25.65;9.52;;;25.10;63.00;;;;;;4987928;28;20034;-48
2023/09/12 11:27:51;;;;;;;17.38;8.85;;;25.20;63.00;;;;;;4987827;28;20077;-51
2023/09/12 11:30:30;;;;;;;19.52;8.95;;;25.20;63.00;;;;;;4987471;28;20030;-54
2023/09/12 11:32:56;;;;;;;;;;;25.20;63.00;;;;;;4988516;28;20085;-52
2023/09/12 11:35:27;;;;;;;20.08;8.38;;;25.20;63.00;;;;;;4988385;28;20405;-54
2023/09/12 11:37:55;;;;;;;22.92;9.25;;;25.20;63.00;;;;;;4987433;28;20040;-51
2023/09/12 11:40:33;;;;;;;20.45;8.50;;;25.20;62.90;;;;;;5010115;28;20068;-51
2023/09/12 11:42:59;;;;;;;21.80;8.68;;;25.20;62.80;;;;;;5049217;28;20395;-51
2023/09/12 11:45:25;;;;;;;21.45;7.97;;;25.20;63.00;;;;;;5048812;28;20025;-54
2023/09/12 11:47:51;;;;;;;16.92;8.00;;;25.30;63.30;;;;;;5049193;28;20489;-54
2023/09/12 11:50:31;;;;;;;15.38;8.13;;;25.30;63.10;;;;;;5049613;28;20017;-54
2023/09/12 11:53:08;;;;;;;19.02;8.30;;;25.30;63.30;;;;;;5048869;28;20098;-55
2023/09/12 11:55:42;;;;;;;14.00;7.95;;;25.30;63.20;;;;;;5049353;28;20474;-53
2023/09/12 11:58:08;;;;;;;19.90;8.27;;;25.30;63.30;;;;;;5048685;28;20465;-53
2023/09/12 12:00:33;;;;;;;15.93;7.80;;;25.30;63.30;;;;;;5049065;28;20100;-52
2023/09/12 12:02:59;;;;;;;19.58;8.30;;;25.30;63.30;;;;;;5049069;28;20108;-54
2023/09/12 12:05:25;;;;;;;19.90;8.35;;;25.30;63.60;;;;;;5046310;28;20027;-52
2023/09/12 12:07:51;;;;;;;15.38;7.47;;;25.30;63.50;;;;;;5068208;28;20024;-55
2023/09/12 12:10:18;;;;;;;16.90;7.72;;;25.30;63.70;;;;;;5074744;28;20032;-55
2023/09/12 12:12:46;;;;;;;15.10;7.57;;;25.30;63.20;;;;;;5088679;28;20024;-53
2023/09/12 12:15:12;;;;;;;19.90;7.78;;;25.30;63.40;;;;;;5083261;28;20328;-52
2023/09/12 12:17:40;;;;;;;26.25;8.35;;;25.30;63.80;;;;;;5084013;28;20030;-55
2023/09/12 12:20:11;;;;;;;16.33;7.28;;;25.30;63.70;;;;;;5069981;28;20042;-54
2023/09/12 12:22:38;;;;;;;27.77;8.50;;;25.30;63.50;;;;;;5084925;28;20115;-51
2023/09/12 12:25:08;;;;;;;15.40;8.02;;;25.30;63.60;;;;;;5077447;28;20054;-50
2023/09/12 12:27:41;;;;;;;21.35;7.68;;;25.30;63.40;;;;;;5077896;28;20032;-53
2023/09/12 12:30:12;;;;;;;17.23;7.60;;;25.30;63.30;;;;;;5083529;28;20043;-54
2023/09/12 12:32:46;;;;;;;20.30;7.40;;;25.30;63.50;;;;;;5074225;28;20020;-51
2023/09/12 12:35:23;;;;;;;15.57;7.50;;;25.40;63.50;;;;;;5068546;28;20040;-49
2023/09/12 12:37:50;;;;;;;15.05;7.68;;;25.30;63.40;;;;;;5077470;28;20036;-49
2023/09/12 12:40:19;;;;;;;14.40;7.32;;;25.30;63.50;;;;;;5079956;28;20033;-48